Palmyra, Wisconsin
Current Conditions -  °F | °C
As of 12:35 AM on Tuesday 21 Oct 2014 (Local Time) from KBUU Reporting Station
Overcast Overcast  
Wind Chill: 45°   Ceiling: 5000
Heat Index: 48°   Visibility: 10mi
Dew Point: 42°   Wind: 8mph
Humidity: 78%   Direction: 360°N
Pressure: 30.01"   Gusts: NA
Location:  42.88°N, 88.59°W
Report Text: KBUU 210535Z AUTO 36007KT 10SM SCT024 OVC050 09/05 A3001 RMK AO2 T00900053
Loading
Personal Weather Stations






























Interactive Weather Map
Tropical Storm Tracking
New forecast layout! Learn more

10-Day Weather Forecast

Advertisements
Track Severe Weather on mobile